sensor_id;sensor_type;location;lat;lon;timestamp;P1;durP1;ratioP1;P2;durP2;ratioP2
64353;SDS011;50681;53.334;-6.536;2023-06-10T00:00:43;28.55;;;12.23;;
64353;SDS011;50681;53.334;-6.536;2023-06-10T00:03:09;23.48;;;11.27;;
64353;SDS011;50681;53.334;-6.536;2023-06-10T00:10:32;28.48;;;11.82;;
64353;SDS011;50681;53.334;-6.536;2023-06-10T00:13:04;23.50;;;12.30;;
64353;SDS011;50681;53.334;-6.536;2023-06-10T00:15:33;27.23;;;12.20;;
64353;SDS011;50681;53.334;-6.536;2023-06-10T00:19:53;21.50;;;11.35;;
64353;SDS011;50681;53.334;-6.536;2023-06-10T00:22:19;33.33;;;11.65;;
64353;SDS011;50681;53.334;-6.536;2023-06-10T00:24:44;24.47;;;12.07;;
64353;SDS011;50681;53.334;-6.536;2023-06-10T00:27:09;28.63;;;11.57;;
64353;SDS011;50681;53.334;-6.536;2023-06-10T00:29:35;35.30;;;11.95;;
64353;SDS011;50681;53.334;-6.536;2023-06-10T00:32:01;22.37;;;11.83;;
64353;SDS011;50681;53.334;-6.536;2023-06-10T00:34:26;21.50;;;11.10;;
64353;SDS011;50681;53.334;-6.536;2023-06-10T00:36:51;28.17;;;11.67;;
64353;SDS011;50681;53.334;-6.536;2023-06-10T00:39:17;23.77;;;12.37;;
64353;SDS011;50681;53.334;-6.536;2023-06-10T00:41:42;27.57;;;11.83;;
64353;SDS011;50681;53.334;-6.536;2023-06-10T00:44:08;30.03;;;11.60;;
64353;SDS011;50681;53.334;-6.536;2023-06-10T00:46:33;25.67;;;11.93;;
64353;SDS011;50681;53.334;-6.536;2023-06-10T00:48:59;31.90;;;11.95;;
64353;SDS011;50681;53.334;-6.536;2023-06-10T00:51:25;27.48;;;12.43;;
64353;SDS011;50681;53.334;-6.536;2023-06-10T00:56:18;28.73;;;11.55;;
64353;SDS011;50681;53.334;-6.536;2023-06-10T00:58:43;26.17;;;12.50;;
64353;SDS011;50681;53.334;-6.536;2023-06-10T01:01:09;29.65;;;13.23;;
64353;SDS011;50681;53.334;-6.536;2023-06-10T01:03:36;25.85;;;11.48;;
64353;SDS011;50681;53.334;-6.536;2023-06-10T01:08:47;49.65;;;13.45;;
64353;SDS011;50681;53.334;-6.536;2023-06-10T01:11:22;22.40;;;11.68;;
64353;SDS011;50681;53.334;-6.536;2023-06-10T01:13:52;24.95;;;12.60;;
64353;SDS011;50681;53.334;-6.536;2023-06-10T01:16:21;31.45;;;12.70;;
64353;SDS011;50681;53.334;-6.536;2023-06-10T01:18:47;27.42;;;11.90;;
64353;SDS011;50681;53.334;-6.536;2023-06-10T01:21:30;35.10;;;13.80;;
64353;SDS011;50681;53.334;-6.536;2023-06-10T01:23:56;25.23;;;13.15;;
64353;SDS011;50681;53.334;-6.536;2023-06-10T01:26:24;34.08;;;12.43;;
64353;SDS011;50681;53.334;-6.536;2023-06-10T01:29:02;33.63;;;13.05;;
64353;SDS011;50681;53.334;-6.536;2023-06-10T01:31:38;30.27;;;13.70;;
64353;SDS011;50681;53.334;-6.536;2023-06-10T01:34:12;26.63;;;12.93;;
64353;SDS011;50681;53.334;-6.536;2023-06-10T01:36:41;33.72;;;13.52;;
64353;SDS011;50681;53.334;-6.536;2023-06-10T01:39:14;34.65;;;13.77;;
64353;SDS011;50681;53.334;-6.536;2023-06-10T01:41:41;27.33;;;12.70;;
64353;SDS011;50681;53.334;-6.536;2023-06-10T01:44:06;24.50;;;12.43;;
64353;SDS011;50681;53.334;-6.536;2023-06-10T01:46:34;28.83;;;13.90;;
64353;SDS011;50681;53.334;-6.536;2023-06-10T01:48:59;22.75;;;13.52;;
64353;SDS011;50681;53.334;-6.536;2023-06-10T01:51:26;28.73;;;13.40;;
64353;SDS011;50681;53.334;-6.536;2023-06-10T01:53:51;34.95;;;15.25;;
64353;SDS011;50681;53.334;-6.536;2023-06-10T01:56:17;30.20;;;14.23;;
64353;SDS011;50681;53.334;-6.536;2023-06-10T01:58:43;44.92;;;15.55;;
64353;SDS011;50681;53.334;-6.536;2023-06-10T02:01:10;33.70;;;14.85;;
64353;SDS011;50681;53.334;-6.536;2023-06-10T02:03:35;45.20;;;15.88;;
64353;SDS011;50681;53.334;-6.536;2023-06-10T02:06:00;36.10;;;15.43;;
64353;SDS011;50681;53.334;-6.536;2023-06-10T02:08:26;30.93;;;15.87;;
64353;SDS011;50681;53.334;-6.536;2023-06-10T02:10:54;36.28;;;16.33;;
64353;SDS011;50681;53.334;-6.536;2023-06-10T02:13:20;29.70;;;14.80;;
64353;SDS011;50681;53.334;-6.536;2023-06-10T02:15:45;24.37;;;15.30;;
64353;SDS011;50681;53.334;-6.536;2023-06-10T02:18:10;35.47;;;15.07;;
64353;SDS011;50681;53.334;-6.536;2023-06-10T02:20:37;32.42;;;15.45;;
64353;SDS011;50681;53.334;-6.536;2023-06-10T02:23:05;31.77;;;15.95;;
64353;SDS011;50681;53.334;-6.536;2023-06-10T02:25:30;28.63;;;15.82;;
64353;SDS011;50681;53.334;-6.536;2023-06-10T02:27:56;36.50;;;18.00;;
64353;SDS011;50681;53.334;-6.536;2023-06-10T02:30:21;39.55;;;17.65;;
64353;SDS011;50681;53.334;-6.536;2023-06-10T02:32:47;37.60;;;16.93;;
64353;SDS011;50681;53.334;-6.536;2023-06-10T02:35:13;42.77;;;17.23;;
64353;SDS011;50681;53.334;-6.536;2023-06-10T02:37:39;29.80;;;16.58;;
64353;SDS011;50681;53.334;-6.536;2023-06-10T02:40:05;30.10;;;17.52;;
64353;SDS011;50681;53.334;-6.536;2023-06-10T02:42:32;30.80;;;16.20;;
64353;SDS011;50681;53.334;-6.536;2023-06-10T02:44:57;42.97;;;17.23;;
64353;SDS011;50681;53.334;-6.536;2023-06-10T02:47:22;35.30;;;17.83;;
64353;SDS011;50681;53.334;-6.536;2023-06-10T02:49:48;43.97;;;18.10;;
64353;SDS011;50681;53.334;-6.536;2023-06-10T02:52:13;40.43;;;17.30;;
64353;SDS011;50681;53.334;-6.536;2023-06-10T02:54:39;43.05;;;17.98;;
64353;SDS011;50681;53.334;-6.536;2023-06-10T02:57:04;42.73;;;17.80;;
64353;SDS011;50681;53.334;-6.536;2023-06-10T02:59:31;44.30;;;18.20;;
64353;SDS011;50681;53.334;-6.536;2023-06-10T03:01:57;51.35;;;17.95;;
64353;SDS011;50681;53.334;-6.536;2023-06-10T03:04:22;41.00;;;17.00;;
64353;SDS011;50681;53.334;-6.536;2023-06-10T03:06:48;39.67;;;17.55;;
64353;SDS011;50681;53.334;-6.536;2023-06-10T03:09:14;33.10;;;17.70;;
64353;SDS011;50681;53.334;-6.536;2023-06-10T03:11:39;34.87;;;17.73;;
64353;SDS011;50681;53.334;-6.536;2023-06-10T03:14:05;43.50;;;17.87;;
64353;SDS011;50681;53.334;-6.536;2023-06-10T03:16:30;44.10;;;18.50;;
64353;SDS011;50681;53.334;-6.536;2023-06-10T03:18:56;43.40;;;17.23;;
64353;SDS011;50681;53.334;-6.536;2023-06-10T03:21:21;30.73;;;17.30;;
64353;SDS011;50681;53.334;-6.536;2023-06-10T03:23:47;32.43;;;17.07;;
64353;SDS011;50681;53.334;-6.536;2023-06-10T03:26:12;33.17;;;17.90;;
64353;SDS011;50681;53.334;-6.536;2023-06-10T03:31:04;36.97;;;17.35;;
64353;SDS011;50681;53.334;-6.536;2023-06-10T03:33:30;39.20;;;18.83;;
64353;SDS011;50681;53.334;-6.536;2023-06-10T03:35:56;48.10;;;19.25;;
64353;SDS011;50681;53.334;-6.536;2023-06-10T03:38:21;42.20;;;17.77;;
64353;SDS011;50681;53.334;-6.536;2023-06-10T03:40:47;41.43;;;18.60;;
64353;SDS011;50681;53.334;-6.536;2023-06-10T03:43:12;37.25;;;16.88;;
64353;SDS011;50681;53.334;-6.536;2023-06-10T03:45:38;37.20;;;16.60;;
64353;SDS011;50681;53.334;-6.536;2023-06-10T03:48:03;33.47;;;17.27;;
64353;SDS011;50681;53.334;-6.536;2023-06-10T03:50:29;36.17;;;17.75;;
64353;SDS011;50681;53.334;-6.536;2023-06-10T03:52:55;33.13;;;17.15;;
64353;SDS011;50681;53.334;-6.536;2023-06-10T03:55:20;42.70;;;17.93;;
64353;SDS011;50681;53.334;-6.536;2023-06-10T03:57:47;42.25;;;18.95;;
64353;SDS011;50681;53.334;-6.536;2023-06-10T04:00:13;41.05;;;19.15;;
64353;SDS011;50681;53.334;-6.536;2023-06-10T04:02:40;41.65;;;18.15;;
64353;SDS011;50681;53.334;-6.536;2023-06-10T04:05:17;37.53;;;18.55;;
64353;SDS011;50681;53.334;-6.536;2023-06-10T04:07:46;40.67;;;17.55;;
64353;SDS011;50681;53.334;-6.536;2023-06-10T04:10:13;45.67;;;17.27;;
64353;SDS011;50681;53.334;-6.536;2023-06-10T04:12:39;40.20;;;16.30;;
64353;SDS011;50681;53.334;-6.536;2023-06-10T04:15:05;39.15;;;17.02;;
64353;SDS011;50681;53.334;-6.536;2023-06-10T04:17:31;38.42;;;15.88;;
64353;SDS011;50681;53.334;-6.536;2023-06-10T04:19:57;39.27;;;16.00;;
64353;SDS011;50681;53.334;-6.536;2023-06-10T04:22:23;31.75;;;15.73;;
64353;SDS011;50681;53.334;-6.536;2023-06-10T04:24:48;40.72;;;16.73;;
64353;SDS011;50681;53.334;-6.536;2023-06-10T04:27:14;38.97;;;15.70;;
64353;SDS011;50681;53.334;-6.536;2023-06-10T04:29:39;42.55;;;16.25;;
64353;SDS011;50681;53.334;-6.536;2023-06-10T04:32:05;37.83;;;15.60;;
64353;SDS011;50681;53.334;-6.536;2023-06-10T04:34:32;39.38;;;15.27;;
64353;SDS011;50681;53.334;-6.536;2023-06-10T04:36:58;35.97;;;14.45;;
64353;SDS011;50681;53.334;-6.536;2023-06-10T04:39:24;39.40;;;14.70;;
64353;SDS011;50681;53.334;-6.536;2023-06-10T04:41:49;35.13;;;13.40;;
64353;SDS011;50681;53.334;-6.536;2023-06-10T04:44:14;35.13;;;14.43;;
64353;SDS011;50681;53.334;-6.536;2023-06-10T04:46:40;40.27;;;12.97;;
64353;SDS011;50681;53.334;-6.536;2023-06-10T04:49:05;30.63;;;12.33;;
64353;SDS011;50681;53.334;-6.536;2023-06-10T04:51:31;33.20;;;13.80;;
64353;SDS011;50681;53.334;-6.536;2023-06-10T04:53:57;34.67;;;12.95;;
64353;SDS011;50681;53.334;-6.536;2023-06-10T04:56:23;30.05;;;12.77;;
64353;SDS011;50681;53.334;-6.536;2023-06-10T04:58:49;40.45;;;12.82;;
64353;SDS011;50681;53.334;-6.536;2023-06-10T05:01:14;39.50;;;13.15;;
64353;SDS011;50681;53.334;-6.536;2023-06-10T05:03:40;34.80;;;12.65;;
64353;SDS011;50681;53.334;-6.536;2023-06-10T05:06:06;39.63;;;12.80;;
64353;SDS011;50681;53.334;-6.536;2023-06-10T05:08:31;44.63;;;13.17;;
64353;SDS011;50681;53.334;-6.536;2023-06-10T05:10:56;25.30;;;11.43;;
64353;SDS011;50681;53.334;-6.536;2023-06-10T05:15:48;39.95;;;12.27;;
64353;SDS011;50681;53.334;-6.536;2023-06-10T05:18:14;36.97;;;12.43;;
64353;SDS011;50681;53.334;-6.536;2023-06-10T05:20:39;32.40;;;12.27;;
64353;SDS011;50681;53.334;-6.536;2023-06-10T05:23:04;29.80;;;10.87;;
64353;SDS011;50681;53.334;-6.536;2023-06-10T05:25:30;42.22;;;12.15;;
64353;SDS011;50681;53.334;-6.536;2023-06-10T05:27:57;39.08;;;12.55;;
64353;SDS011;50681;53.334;-6.536;2023-06-10T05:30:23;33.63;;;11.90;;
64353;SDS011;50681;53.334;-6.536;2023-06-10T05:35:16;36.38;;;11.77;;
64353;SDS011;50681;53.334;-6.536;2023-06-10T05:37:41;33.88;;;11.55;;
64353;SDS011;50681;53.334;-6.536;2023-06-10T05:40:08;32.63;;;10.93;;
64353;SDS011;50681;53.334;-6.536;2023-06-10T05:42:33;37.53;;;10.98;;
64353;SDS011;50681;53.334;-6.536;2023-06-10T05:44:59;31.58;;;11.35;;
64353;SDS011;50681;53.334;-6.536;2023-06-10T05:47:25;30.50;;;11.40;;
64353;SDS011;50681;53.334;-6.536;2023-06-10T05:49:50;42.33;;;12.00;;
64353;SDS011;50681;53.334;-6.536;2023-06-10T05:52:17;25.70;;;11.05;;
64353;SDS011;50681;53.334;-6.536;2023-06-10T05:54:43;35.70;;;11.27;;
64353;SDS011;50681;53.334;-6.536;2023-06-10T05:57:08;41.10;;;11.73;;
64353;SDS011;50681;53.334;-6.536;2023-06-10T05:59:34;31.80;;;11.83;;
64353;SDS011;50681;53.334;-6.536;2023-06-10T06:01:59;39.00;;;11.57;;
64353;SDS011;50681;53.334;-6.536;2023-06-10T06:04:25;30.10;;;11.60;;
64353;SDS011;50681;53.334;-6.536;2023-06-10T06:06:50;36.33;;;11.30;;
64353;SDS011;50681;53.334;-6.536;2023-06-10T06:09:15;34.13;;;11.97;;
64353;SDS011;50681;53.334;-6.536;2023-06-10T06:11:41;22.77;;;11.50;;
64353;SDS011;50681;53.334;-6.536;2023-06-10T06:14:06;35.50;;;12.13;;
64353;SDS011;50681;53.334;-6.536;2023-06-10T06:16:32;33.40;;;11.03;;
64353;SDS011;50681;53.334;-6.536;2023-06-10T06:18:58;30.38;;;11.23;;
64353;SDS011;50681;53.334;-6.536;2023-06-10T06:21:23;34.87;;;11.00;;
64353;SDS011;50681;53.334;-6.536;2023-06-10T06:23:49;30.27;;;11.95;;
64353;SDS011;50681;53.334;-6.536;2023-06-10T06:26:14;37.25;;;11.13;;
64353;SDS011;50681;53.334;-6.536;2023-06-10T06:28:40;36.50;;;11.60;;
64353;SDS011;50681;53.334;-6.536;2023-06-10T06:31:06;34.93;;;11.53;;
64353;SDS011;50681;53.334;-6.536;2023-06-10T06:33:32;33.63;;;11.38;;
64353;SDS011;50681;53.334;-6.536;2023-06-10T06:35:58;33.03;;;10.68;;
64353;SDS011;50681;53.334;-6.536;2023-06-10T06:38:25;37.60;;;11.93;;
64353;SDS011;50681;53.334;-6.536;2023-06-10T06:40:50;31.80;;;10.30;;
64353;SDS011;50681;53.334;-6.536;2023-06-10T06:43:16;36.40;;;11.97;;
64353;SDS011;50681;53.334;-6.536;2023-06-10T06:45:43;28.55;;;10.50;;
64353;SDS011;50681;53.334;-6.536;2023-06-10T06:48:10;36.08;;;11.00;;
64353;SDS011;50681;53.334;-6.536;2023-06-10T06:53:02;38.22;;;12.02;;
64353;SDS011;50681;53.334;-6.536;2023-06-10T06:55:27;29.40;;;10.05;;
64353;SDS011;50681;53.334;-6.536;2023-06-10T06:57:52;27.23;;;9.37;;
64353;SDS011;50681;53.334;-6.536;2023-06-10T07:00:18;42.13;;;11.20;;
64353;SDS011;50681;53.334;-6.536;2023-06-10T07:02:43;35.65;;;10.45;;
64353;SDS011;50681;53.334;-6.536;2023-06-10T07:05:09;34.92;;;11.40;;
64353;SDS011;50681;53.334;-6.536;2023-06-10T07:07:35;32.65;;;10.98;;
64353;SDS011;50681;53.334;-6.536;2023-06-10T07:10:00;39.03;;;10.87;;
64353;SDS011;50681;53.334;-6.536;2023-06-10T07:12:26;41.67;;;11.53;;
64353;SDS011;50681;53.334;-6.536;2023-06-10T07:14:51;36.73;;;11.87;;
64353;SDS011;50681;53.334;-6.536;2023-06-10T07:17:17;28.03;;;11.93;;
64353;SDS011;50681;53.334;-6.536;2023-06-10T07:19:43;39.30;;;11.35;;
64353;SDS011;50681;53.334;-6.536;2023-06-10T07:24:34;41.10;;;12.95;;
64353;SDS011;50681;53.334;-6.536;2023-06-10T07:27:00;39.87;;;12.60;;
64353;SDS011;50681;53.334;-6.536;2023-06-10T07:29:25;33.30;;;11.57;;
64353;SDS011;50681;53.334;-6.536;2023-06-10T07:31:50;27.67;;;10.60;;
64353;SDS011;50681;53.334;-6.536;2023-06-10T07:34:16;34.47;;;12.00;;
64353;SDS011;50681;53.334;-6.536;2023-06-10T07:36:41;29.00;;;11.10;;
64353;SDS011;50681;53.334;-6.536;2023-06-10T07:39:06;33.50;;;10.63;;
64353;SDS011;50681;53.334;-6.536;2023-06-10T07:41:32;40.25;;;11.02;;
64353;SDS011;50681;53.334;-6.536;2023-06-10T07:43:58;29.10;;;9.97;;
64353;SDS011;50681;53.334;-6.536;2023-06-10T07:46:23;35.73;;;11.50;;
64353;SDS011;50681;53.334;-6.536;2023-06-10T07:48:49;36.22;;;10.63;;
64353;SDS011;50681;53.334;-6.536;2023-06-10T07:51:15;30.63;;;10.20;;
64353;SDS011;50681;53.334;-6.536;2023-06-10T07:53:41;34.75;;;10.25;;
64353;SDS011;50681;53.334;-6.536;2023-06-10T07:56:07;22.90;;;9.65;;
64353;SDS011;50681;53.334;-6.536;2023-06-10T07:58:33;34.67;;;10.27;;
64353;SDS011;50681;53.334;-6.536;2023-06-10T08:00:58;33.90;;;10.20;;
64353;SDS011;50681;53.334;-6.536;2023-06-10T08:03:24;28.53;;;9.47;;
64353;SDS011;50681;53.334;-6.536;2023-06-10T08:05:49;30.73;;;9.13;;
64353;SDS011;50681;53.334;-6.536;2023-06-10T08:08:14;42.73;;;9.87;;
64353;SDS011;50681;53.334;-6.536;2023-06-10T08:10:40;26.67;;;9.13;;
64353;SDS011;50681;53.334;-6.536;2023-06-10T08:13:05;27.63;;;8.93;;
64353;SDS011;50681;53.334;-6.536;2023-06-10T08:15:31;29.92;;;9.30;;
64353;SDS011;50681;53.334;-6.536;2023-06-10T08:17:56;41.93;;;9.83;;
64353;SDS011;50681;53.334;-6.536;2023-06-10T08:20:22;36.43;;;10.23;;
64353;SDS011;50681;53.334;-6.536;2023-06-10T08:22:47;30.60;;;9.27;;
64353;SDS011;50681;53.334;-6.536;2023-06-10T08:25:13;38.92;;;10.13;;
64353;SDS011;50681;53.334;-6.536;2023-06-10T08:27:38;22.00;;;8.82;;
64353;SDS011;50681;53.334;-6.536;2023-06-10T08:30:05;29.10;;;9.18;;
64353;SDS011;50681;53.334;-6.536;2023-06-10T08:32:31;35.63;;;10.20;;
64353;SDS011;50681;53.334;-6.536;2023-06-10T08:34:56;35.93;;;9.27;;
64353;SDS011;50681;53.334;-6.536;2023-06-10T08:37:22;34.90;;;9.73;;
64353;SDS011;50681;53.334;-6.536;2023-06-10T08:39:47;27.20;;;8.80;;
64353;SDS011;50681;53.334;-6.536;2023-06-10T08:44:44;29.20;;;9.25;;
64353;SDS011;50681;53.334;-6.536;2023-06-10T08:47:15;26.15;;;9.02;;
64353;SDS011;50681;53.334;-6.536;2023-06-10T08:49:43;30.50;;;9.00;;
64353;SDS011;50681;53.334;-6.536;2023-06-10T08:52:16;32.28;;;10.18;;
64353;SDS011;50681;53.334;-6.536;2023-06-10T08:54:46;22.42;;;9.02;;
64353;SDS011;50681;53.334;-6.536;2023-06-10T08:57:17;29.08;;;9.23;;
64353;SDS011;50681;53.334;-6.536;2023-06-10T08:59:45;33.65;;;10.18;;
64353;SDS011;50681;53.334;-6.536;2023-06-10T09:02:11;27.42;;;9.48;;
64353;SDS011;50681;53.334;-6.536;2023-06-10T09:04:38;28.88;;;9.07;;
64353;SDS011;50681;53.334;-6.536;2023-06-10T09:07:04;23.23;;;9.45;;
64353;SDS011;50681;53.334;-6.536;2023-06-10T09:09:30;30.42;;;9.80;;
64353;SDS011;50681;53.334;-6.536;2023-06-10T09:11:57;27.65;;;9.75;;
64353;SDS011;50681;53.334;-6.536;2023-06-10T09:14:23;24.20;;;9.98;;
64353;SDS011;50681;53.334;-6.536;2023-06-10T09:16:49;31.88;;;11.10;;
64353;SDS011;50681;53.334;-6.536;2023-06-10T09:19:15;24.17;;;9.53;;
64353;SDS011;50681;53.334;-6.536;2023-06-10T09:21:41;33.90;;;10.18;;
64353;SDS011;50681;53.334;-6.536;2023-06-10T09:24:07;25.92;;;9.57;;
64353;SDS011;50681;53.334;-6.536;2023-06-10T09:29:02;33.05;;;11.30;;
64353;SDS011;50681;53.334;-6.536;2023-06-10T09:31:32;28.92;;;11.25;;
64353;SDS011;50681;53.334;-6.536;2023-06-10T09:34:07;34.40;;;12.20;;
64353;SDS011;50681;53.334;-6.536;2023-06-10T09:36:36;35.65;;;11.57;;
64353;SDS011;50681;53.334;-6.536;2023-06-10T09:39:02;27.08;;;11.07;;
64353;SDS011;50681;53.334;-6.536;2023-06-10T09:41:31;35.30;;;11.05;;
64353;SDS011;50681;53.334;-6.536;2023-06-10T09:44:00;31.75;;;11.02;;
64353;SDS011;50681;53.334;-6.536;2023-06-10T09:46:31;31.00;;;10.70;;
64353;SDS011;50681;53.334;-6.536;2023-06-10T09:48:59;42.22;;;11.65;;
64353;SDS011;50681;53.334;-6.536;2023-06-10T09:51:25;43.10;;;11.05;;
64353;SDS011;50681;53.334;-6.536;2023-06-10T09:53:51;37.38;;;10.90;;
64353;SDS011;50681;53.334;-6.536;2023-06-10T09:56:17;32.95;;;10.25;;
64353;SDS011;50681;53.334;-6.536;2023-06-10T09:58:42;36.80;;;11.05;;
64353;SDS011;50681;53.334;-6.536;2023-06-10T10:01:11;37.65;;;11.32;;
64353;SDS011;50681;53.334;-6.536;2023-06-10T10:03:50;24.73;;;10.23;;
64353;SDS011;50681;53.334;-6.536;2023-06-10T10:06:16;35.03;;;10.85;;
64353;SDS011;50681;53.334;-6.536;2023-06-10T10:08:43;32.85;;;11.13;;
64353;SDS011;50681;53.334;-6.536;2023-06-10T10:11:10;26.92;;;11.55;;
64353;SDS011;50681;53.334;-6.536;2023-06-10T10:13:35;30.67;;;10.25;;
64353;SDS011;50681;53.334;-6.536;2023-06-10T10:16:21;28.27;;;10.35;;
64353;SDS011;50681;53.334;-6.536;2023-06-10T10:18:54;39.58;;;12.25;;
64353;SDS011;50681;53.334;-6.536;2023-06-10T10:21:23;30.23;;;11.07;;
64353;SDS011;50681;53.334;-6.536;2023-06-10T10:24:01;25.58;;;10.35;;
64353;SDS011;50681;53.334;-6.536;2023-06-10T10:26:30;32.53;;;12.15;;
64353;SDS011;50681;53.334;-6.536;2023-06-10T10:31:29;30.67;;;11.93;;
64353;SDS011;50681;53.334;-6.536;2023-06-10T10:33:58;29.38;;;11.88;;
64353;SDS011;50681;53.334;-6.536;2023-06-10T10:36:24;26.98;;;11.80;;
64353;SDS011;50681;53.334;-6.536;2023-06-10T10:38:50;26.58;;;12.48;;
64353;SDS011;50681;53.334;-6.536;2023-06-10T10:41:17;24.67;;;11.80;;
64353;SDS011;50681;53.334;-6.536;2023-06-10T10:43:44;38.58;;;13.05;;
64353;SDS011;50681;53.334;-6.536;2023-06-10T10:46:12;38.20;;;14.20;;
64353;SDS011;50681;53.334;-6.536;2023-06-10T10:48:39;34.55;;;13.68;;
64353;SDS011;50681;53.334;-6.536;2023-06-10T10:51:11;34.95;;;14.27;;
64353;SDS011;50681;53.334;-6.536;2023-06-10T10:53:37;31.67;;;13.45;;
64353;SDS011;50681;53.334;-6.536;2023-06-10T10:58:30;36.58;;;12.18;;
64353;SDS011;50681;53.334;-6.536;2023-06-10T11:00:57;32.95;;;11.50;;
64353;SDS011;50681;53.334;-6.536;2023-06-10T11:03:22;33.30;;;12.50;;
64353;SDS011;50681;53.334;-6.536;2023-06-10T11:05:53;39.97;;;11.82;;
64353;SDS011;50681;53.334;-6.536;2023-06-10T11:10:53;27.13;;;10.90;;
64353;SDS011;50681;53.334;-6.536;2023-06-10T11:13:19;30.83;;;11.93;;
64353;SDS011;50681;53.334;-6.536;2023-06-10T11:15:47;26.88;;;10.90;;
64353;SDS011;50681;53.334;-6.536;2023-06-10T11:18:18;33.80;;;11.38;;
64353;SDS011;50681;53.334;-6.536;2023-06-10T11:26:11;28.27;;;12.60;;
64353;SDS011;50681;53.334;-6.536;2023-06-10T11:34:00;31.77;;;12.93;;
64353;SDS011;50681;53.334;-6.536;2023-06-10T11:36:28;32.17;;;13.45;;
64353;SDS011;50681;53.334;-6.536;2023-06-10T11:41:27;31.45;;;12.90;;
64353;SDS011;50681;53.334;-6.536;2023-06-10T11:43:54;36.65;;;12.90;;
64353;SDS011;50681;53.334;-6.536;2023-06-10T11:46:22;31.02;;;13.05;;
64353;SDS011;50681;53.334;-6.536;2023-06-10T11:48:52;32.05;;;13.70;;
64353;SDS011;50681;53.334;-6.536;2023-06-10T11:51:21;35.67;;;13.00;;
64353;SDS011;50681;53.334;-6.536;2023-06-10T11:56:13;31.60;;;11.73;;
64353;SDS011;50681;53.334;-6.536;2023-06-10T11:58:45;31.52;;;11.80;;
64353;SDS011;50681;53.334;-6.536;2023-06-10T12:01:20;27.38;;;11.45;;
64353;SDS011;50681;53.334;-6.536;2023-06-10T12:03:48;38.80;;;11.70;;
64353;SDS011;50681;53.334;-6.536;2023-06-10T12:06:41;42.85;;;12.38;;
64353;SDS011;50681;53.334;-6.536;2023-06-10T12:09:30;145.45;;;18.13;;
64353;SDS011;50681;53.334;-6.536;2023-06-10T12:11:59;45.75;;;11.23;;
64353;SDS011;50681;53.334;-6.536;2023-06-10T12:14:57;50.00;;;12.00;;
64353;SDS011;50681;53.334;-6.536;2023-06-10T12:20:08;37.22;;;11.40;;
64353;SDS011;50681;53.334;-6.536;2023-06-10T12:22:49;27.42;;;10.25;;
64353;SDS011;50681;53.334;-6.536;2023-06-10T12:27:51;41.40;;;11.18;;
64353;SDS011;50681;53.334;-6.536;2023-06-10T12:30:22;27.30;;;10.80;;
64353;SDS011;50681;53.334;-6.536;2023-06-10T12:32:50;28.10;;;10.98;;
64353;SDS011;50681;53.334;-6.536;2023-06-10T12:35:18;27.42;;;10.20;;
64353;SDS011;50681;53.334;-6.536;2023-06-10T12:37:56;28.63;;;10.80;;
64353;SDS011;50681;53.334;-6.536;2023-06-10T12:40:29;32.20;;;11.50;;
64353;SDS011;50681;53.334;-6.536;2023-06-10T12:42:57;30.40;;;11.13;;
64353;SDS011;50681;53.334;-6.536;2023-06-10T12:48:03;33.53;;;10.88;;
64353;SDS011;50681;53.334;-6.536;2023-06-10T12:50:37;30.17;;;10.80;;
64353;SDS011;50681;53.334;-6.536;2023-06-10T12:53:06;35.97;;;11.50;;
64353;SDS011;50681;53.334;-6.536;2023-06-10T12:58:01;25.13;;;9.98;;
64353;SDS011;50681;53.334;-6.536;2023-06-10T13:00:30;33.25;;;12.40;;
64353;SDS011;50681;53.334;-6.536;2023-06-10T13:05:22;26.33;;;10.63;;
64353;SDS011;50681;53.334;-6.536;2023-06-10T13:07:49;35.97;;;11.43;;
64353;SDS011;50681;53.334;-6.536;2023-06-10T13:10:16;28.27;;;10.93;;
64353;SDS011;50681;53.334;-6.536;2023-06-10T13:12:42;26.98;;;10.70;;
64353;SDS011;50681;53.334;-6.536;2023-06-10T13:15:11;24.90;;;11.25;;
64353;SDS011;50681;53.334;-6.536;2023-06-10T13:17:37;31.30;;;10.77;;
64353;SDS011;50681;53.334;-6.536;2023-06-10T13:20:05;27.77;;;11.00;;
64353;SDS011;50681;53.334;-6.536;2023-06-10T13:22:32;26.98;;;10.75;;
64353;SDS011;50681;53.334;-6.536;2023-06-10T13:25:02;32.50;;;11.10;;
64353;SDS011;50681;53.334;-6.536;2023-06-10T13:27:29;27.58;;;11.63;;
64353;SDS011;50681;53.334;-6.536;2023-06-10T13:29:56;29.67;;;11.77;;
64353;SDS011;50681;53.334;-6.536;2023-06-10T13:32:25;41.65;;;11.68;;
64353;SDS011;50681;53.334;-6.536;2023-06-10T13:34:51;27.88;;;12.05;;
64353;SDS011;50681;53.334;-6.536;2023-06-10T13:37:18;28.10;;;11.98;;
64353;SDS011;50681;53.334;-6.536;2023-06-10T13:39:44;27.58;;;12.10;;
64353;SDS011;50681;53.334;-6.536;2023-06-10T13:42:13;23.33;;;12.18;;
64353;SDS011;50681;53.334;-6.536;2023-06-10T13:47:05;35.88;;;12.25;;
64353;SDS011;50681;53.334;-6.536;2023-06-10T13:49:31;32.28;;;14.00;;
64353;SDS011;50681;53.334;-6.536;2023-06-10T13:51:57;34.55;;;13.73;;
64353;SDS011;50681;53.334;-6.536;2023-06-10T13:54:23;43.83;;;14.10;;
64353;SDS011;50681;53.334;-6.536;2023-06-10T13:56:49;37.65;;;14.20;;
64353;SDS011;50681;53.334;-6.536;2023-06-10T13:59:15;31.58;;;14.95;;
64353;SDS011;50681;53.334;-6.536;2023-06-10T14:04:07;35.63;;;14.43;;
64353;SDS011;50681;53.334;-6.536;2023-06-10T14:06:35;30.48;;;14.50;;
64353;SDS011;50681;53.334;-6.536;2023-06-10T14:09:01;39.35;;;16.30;;
64353;SDS011;50681;53.334;-6.536;2023-06-10T14:11:27;38.95;;;16.77;;
64353;SDS011;50681;53.334;-6.536;2023-06-10T14:13:53;31.08;;;15.15;;
64353;SDS011;50681;53.334;-6.536;2023-06-10T14:16:23;34.55;;;15.63;;
64353;SDS011;50681;53.334;-6.536;2023-06-10T14:18:50;33.90;;;14.65;;
64353;SDS011;50681;53.334;-6.536;2023-06-10T14:21:18;39.03;;;16.08;;
64353;SDS011;50681;53.334;-6.536;2023-06-10T14:23:45;36.50;;;16.20;;
64353;SDS011;50681;53.334;-6.536;2023-06-10T14:26:14;32.95;;;14.52;;
64353;SDS011;50681;53.334;-6.536;2023-06-10T14:28:40;32.78;;;15.13;;
64353;SDS011;50681;53.334;-6.536;2023-06-10T14:33:32;41.03;;;15.63;;
64353;SDS011;50681;53.334;-6.536;2023-06-10T14:36:01;39.92;;;15.65;;
64353;SDS011;50681;53.334;-6.536;2023-06-10T14:38:27;31.50;;;15.23;;
64353;SDS011;50681;53.334;-6.536;2023-06-10T14:40:53;30.70;;;14.77;;
64353;SDS011;50681;53.334;-6.536;2023-06-10T14:43:20;33.30;;;16.45;;
64353;SDS011;50681;53.334;-6.536;2023-06-10T14:45:46;34.53;;;15.65;;
64353;SDS011;50681;53.334;-6.536;2023-06-10T14:48:12;46.83;;;16.90;;
64353;SDS011;50681;53.334;-6.536;2023-06-10T14:50:38;33.85;;;15.52;;
64353;SDS011;50681;53.334;-6.536;2023-06-10T14:53:06;28.58;;;16.10;;
64353;SDS011;50681;53.334;-6.536;2023-06-10T14:57:57;34.72;;;15.88;;
64353;SDS011;50681;53.334;-6.536;2023-06-10T15:00:24;32.80;;;15.45;;
64353;SDS011;50681;53.334;-6.536;2023-06-10T15:02:51;30.73;;;15.77;;
64353;SDS011;50681;53.334;-6.536;2023-06-10T15:05:20;32.63;;;15.85;;
64353;SDS011;50681;53.334;-6.536;2023-06-10T15:07:46;38.40;;;16.30;;
64353;SDS011;50681;53.334;-6.536;2023-06-10T15:10:13;36.83;;;16.30;;
64353;SDS011;50681;53.334;-6.536;2023-06-10T15:12:39;35.15;;;15.48;;
64353;SDS011;50681;53.334;-6.536;2023-06-10T15:15:08;37.38;;;15.65;;
64353;SDS011;50681;53.334;-6.536;2023-06-10T15:17:34;29.38;;;15.65;;
64353;SDS011;50681;53.334;-6.536;2023-06-10T15:20:00;35.20;;;15.32;;
64353;SDS011;50681;53.334;-6.536;2023-06-10T15:22:29;34.50;;;16.25;;
64353;SDS011;50681;53.334;-6.536;2023-06-10T15:24:58;31.23;;;15.23;;